Irwin, Ohio
Current Conditions -  °F | °C
As of 9:54 AM on Tuesday 21 Oct 2014 (Local Time) from KMRT Reporting Station
Overcast Overcast  
Wind Chill: 42°   Ceiling: 1000
Heat Index: 46°   Visibility: 2mi
Dew Point: 42°   Wind: 9mph
Humidity: 85%   Direction: 340°NNW
Pressure: 29.98"   Gusts: NA
Location:  40.12°N, 83.49°W
Report Text: KMRT 211354Z AUTO 34008KT 2SM BKN010 OVC022 08/06 A2998 RMK AO2 T00800056
Loading
Personal Weather Stations






























Interactive Weather Map
Tropical Storm Tracking
New forecast layout! Learn more

10-Day Weather Forecast

Advertisements
Track Severe Weather on mobile